createdAt,value
2023-05-05T00:02:11.989Z,97877.94
2023-05-05T00:12:28.728Z,97871.59
2023-05-05T00:17:30.036Z,97868.41
2023-05-05T00:22:31.287Z,97867.47
2023-05-05T00:27:32.654Z,97869.28
2023-05-05T00:32:34.062Z,97876.00
2023-05-05T00:37:35.993Z,97876.09
2023-05-05T00:42:37.508Z,97868.78
2023-05-05T00:47:38.836Z,97869.63
2023-05-05T00:52:40.075Z,97861.69
2023-05-05T00:57:41.442Z,97861.28
2023-05-05T01:02:42.787Z,97857.28
2023-05-05T01:07:44.043Z,97843.16
2023-05-05T01:12:45.414Z,97849.59
2023-05-05T01:17:46.873Z,97851.34
2023-05-05T01:22:48.270Z,97851.09
2023-05-05T01:27:49.760Z,97848.22
2023-05-05T01:32:51.090Z,97842.72
2023-05-05T01:37:52.534Z,97845.13
2023-05-05T01:42:54.428Z,97853.50
2023-05-05T01:47:56.121Z,97846.66
2023-05-05T01:52:57.801Z,97852.50
2023-05-05T01:57:59.126Z,97848.81
2023-05-05T02:03:00.421Z,97851.78
2023-05-05T02:08:01.785Z,97843.38
2023-05-05T02:13:03.115Z,97858.00
2023-05-05T02:18:04.429Z,97863.19
2023-05-05T02:23:07.788Z,97859.22
2023-05-05T02:28:09.238Z,97858.97
2023-05-05T02:33:10.683Z,97859.59
2023-05-05T02:38:12.375Z,97862.66
2023-05-05T02:43:13.768Z,97861.09
2023-05-05T02:48:15.031Z,97860.22
2023-05-05T02:53:16.341Z,97853.47
2023-05-05T02:58:17.589Z,97855.03
2023-05-05T03:03:18.933Z,97850.59
2023-05-05T03:08:20.339Z,97849.53
2023-05-05T03:13:21.821Z,97843.50
2023-05-05T03:18:23.095Z,97846.56
2023-05-05T03:23:24.355Z,97851.19
2023-05-05T03:28:25.593Z,97846.22
2023-05-05T03:33:26.966Z,97856.72
2023-05-05T03:38:28.298Z,97865.00
2023-05-05T03:43:29.632Z,97860.41
2023-05-05T03:48:31.522Z,97859.44
2023-05-05T03:53:32.837Z,97858.59
2023-05-05T03:58:34.141Z,97853.38
2023-05-05T04:03:35.528Z,97862.09
2023-05-05T04:08:36.804Z,97862.63
2023-05-05T04:13:38.059Z,97868.66
2023-05-05T04:18:39.303Z,97865.16
2023-05-05T04:23:40.571Z,97857.38
2023-05-05T04:28:42.066Z,97865.53
2023-05-05T04:33:43.337Z,97861.53
2023-05-05T04:38:44.636Z,97871.56
2023-05-05T04:43:46.135Z,97873.69
2023-05-05T04:48:47.522Z,97874.41
2023-05-05T04:53:48.738Z,97869.56
2023-05-05T04:58:50.053Z,97864.19
2023-05-05T05:03:51.356Z,97875.22
2023-05-05T05:08:52.584Z,97890.06
2023-05-05T05:13:54.078Z,97880.34
2023-05-05T05:18:55.454Z,97882.47
2023-05-05T05:23:56.669Z,97885.03
2023-05-05T05:28:57.917Z,97883.53
2023-05-05T05:33:59.110Z,97898.28
2023-05-05T05:39:00.320Z,97896.78
2023-05-05T05:44:01.612Z,97898.47
2023-05-05T05:49:02.884Z,97899.91
2023-05-05T05:54:04.100Z,97897.38
2023-05-05T05:59:08.053Z,97899.59
2023-05-05T06:04:09.491Z,97904.28
2023-05-05T06:09:10.810Z,97899.44
2023-05-05T06:14:12.117Z,97892.06
2023-05-05T06:19:13.505Z,97892.31
2023-05-05T06:24:14.778Z,97898.03
2023-05-05T06:29:16.154Z,97895.00
2023-05-05T06:34:18.219Z,97901.31
2023-05-05T06:39:19.471Z,97877.44
2023-05-05T06:44:20.874Z,97880.44
2023-05-05T06:49:22.100Z,97876.13
2023-05-05T06:54:23.360Z,97869.97
2023-05-05T06:59:24.721Z,97861.56
2023-05-05T07:04:26.878Z,97863.31
2023-05-05T07:09:28.233Z,97851.63
2023-05-05T07:14:29.495Z,97840.31
2023-05-05T07:19:32.447Z,97813.19
2023-05-05T07:24:33.741Z,97805.03
2023-05-05T07:29:35.034Z,97792.06
2023-05-05T07:34:38.001Z,97788.63
2023-05-05T07:39:39.307Z,97765.56
2023-05-05T07:44:40.709Z,97762.91
2023-05-05T07:49:42.029Z,97757.44
2023-05-05T07:54:45.187Z,97758.81
2023-05-05T07:59:46.434Z,97764.56
2023-05-05T08:04:47.699Z,97762.53
2023-05-05T08:09:48.961Z,97756.47
2023-05-05T08:14:50.334Z,97740.34
2023-05-05T08:19:51.603Z,97749.91
2023-05-05T08:24:52.858Z,97736.06
2023-05-05T08:29:54.058Z,97738.00
2023-05-05T08:34:55.447Z,97733.81
2023-05-05T08:39:56.690Z,97733.72
2023-05-05T08:44:59.967Z,97731.56
2023-05-05T08:50:01.872Z,97724.97
2023-05-05T08:55:03.179Z,97727.59
2023-05-05T09:00:04.494Z,97728.38
2023-05-05T09:05:06.307Z,97722.56
2023-05-05T09:10:08.788Z,97719.63
2023-05-05T09:15:10.329Z,97715.91
2023-05-05T09:20:11.749Z,97713.00
2023-05-05T09:25:13.048Z,97713.38
2023-05-05T09:30:14.319Z,97720.38
2023-05-05T09:35:15.684Z,97719.28
2023-05-05T09:40:16.938Z,97719.56
2023-05-05T09:45:18.302Z,97718.97
2023-05-05T09:50:19.783Z,97710.78
2023-05-05T09:55:21.111Z,97712.69
2023-05-05T10:00:22.587Z,97701.81
2023-05-05T10:05:23.914Z,97704.50
2023-05-05T10:10:26.512Z,97701.31
2023-05-05T10:15:29.261Z,97690.41
2023-05-05T10:20:30.763Z,97680.78
2023-05-05T10:25:32.001Z,97680.97
2023-05-05T10:30:33.311Z,97679.13
2023-05-05T10:35:34.616Z,97669.25
2023-05-05T10:40:35.899Z,97671.19
2023-05-05T10:45:37.259Z,97677.41
2023-05-05T10:50:38.555Z,97665.78
2023-05-05T10:55:39.844Z,97662.09
2023-05-05T11:00:41.276Z,97649.69
2023-05-05T11:05:42.598Z,97651.34
2023-05-05T11:10:43.807Z,97643.31
2023-05-05T11:15:45.077Z,97635.47
2023-05-05T11:20:46.371Z,97622.63
2023-05-05T11:25:47.600Z,97616.16
2023-05-05T11:30:48.900Z,97594.09
2023-05-05T11:35:50.169Z,97593.50
2023-05-05T11:40:51.628Z,97588.31
2023-05-05T11:45:53.428Z,97585.94
2023-05-05T11:50:54.659Z,97576.31
2023-05-05T11:55:55.952Z,97568.84
2023-05-05T12:00:57.231Z,97568.75
2023-05-05T12:05:58.485Z,97555.16
2023-05-05T12:10:59.719Z,97553.69
2023-05-05T12:16:00.949Z,97539.81
2023-05-05T12:21:02.532Z,97542.78
2023-05-05T12:26:03.929Z,97536.25
2023-05-05T12:31:05.290Z,97541.00
2023-05-05T12:36:06.547Z,97529.44
2023-05-05T12:41:07.777Z,97517.41
2023-05-05T12:46:09.169Z,97530.84
2023-05-05T12:51:10.618Z,97525.13
2023-05-05T12:56:11.845Z,97532.53
2023-05-05T13:01:13.105Z,97525.38
2023-05-05T13:06:14.428Z,97519.66
2023-05-05T13:11:15.987Z,97528.97
2023-05-05T13:16:17.307Z,97525.13
2023-05-05T13:21:18.618Z,97524.81
2023-05-05T13:26:20.091Z,97518.13
2023-05-05T13:31:21.446Z,97519.47
2023-05-05T13:36:22.723Z,97528.25
2023-05-05T13:41:24.096Z,97523.53
2023-05-05T13:46:25.511Z,97522.94
2023-05-05T13:51:26.957Z,97536.13
2023-05-05T13:56:28.245Z,97549.03
2023-05-05T14:01:30.259Z,97545.81
2023-05-05T14:06:32.569Z,97538.47
2023-05-05T14:11:34.022Z,97553.00
2023-05-05T14:16:35.457Z,97572.06
2023-05-05T14:21:36.749Z,97591.72
2023-05-05T14:26:37.992Z,97594.34
2023-05-05T14:31:39.359Z,97592.13
2023-05-05T14:36:41.202Z,97589.06
2023-05-05T14:41:42.427Z,97596.53
2023-05-05T14:46:45.456Z,97595.16
2023-05-05T14:51:47.416Z,97587.09
2023-05-05T14:56:48.656Z,97585.13
2023-05-05T15:01:50.055Z,97573.91
2023-05-05T15:06:51.363Z,97561.59
2023-05-05T15:11:52.576Z,97563.59
2023-05-05T15:16:53.838Z,97558.50
2023-05-05T15:21:55.451Z,97558.13
2023-05-05T15:26:56.884Z,97540.41
2023-05-05T15:31:58.259Z,97541.47
2023-05-05T15:36:59.695Z,97528.34
2023-05-05T15:42:04.892Z,97518.00
2023-05-05T15:47:06.280Z,97517.63
2023-05-05T15:52:08.191Z,97515.03
2023-05-05T15:57:09.453Z,97510.88
2023-05-05T16:02:10.741Z,97505.03
2023-05-05T16:07:12.187Z,97512.44
2023-05-05T16:12:13.518Z,97499.28
2023-05-05T16:17:14.786Z,97513.75
2023-05-05T16:22:16.048Z,97499.34
2023-05-05T16:27:17.539Z,97493.69
2023-05-05T16:32:18.794Z,97484.66
2023-05-05T16:37:20.021Z,97475.13
2023-05-05T16:42:21.520Z,97480.50
2023-05-05T16:47:22.781Z,97483.56
2023-05-05T16:52:24.064Z,97489.63
2023-05-05T16:57:25.372Z,97493.25
2023-05-05T17:02:26.607Z,97501.66
2023-05-05T17:07:27.868Z,97506.03
2023-05-05T17:12:29.146Z,97496.59
2023-05-05T17:17:30.628Z,97496.47
2023-05-05T17:22:32.058Z,97509.50
2023-05-05T17:27:33.352Z,97501.72
2023-05-05T17:32:34.593Z,97498.13
2023-05-05T17:37:36.109Z,97490.59
2023-05-05T17:42:38.293Z,97489.25
2023-05-05T17:47:39.648Z,97474.75
2023-05-05T17:52:41.198Z,97476.19
2023-05-05T17:57:42.710Z,97478.09
2023-05-05T18:02:44.039Z,97490.78
2023-05-05T18:07:45.549Z,97480.19
2023-05-05T18:12:47.220Z,97474.91
2023-05-05T18:17:48.464Z,97462.63
2023-05-05T18:22:49.690Z,97461.25
2023-05-05T18:27:51.143Z,97457.22
2023-05-05T18:32:52.510Z,97459.44
2023-05-05T18:37:54.990Z,97460.13
2023-05-05T18:42:56.749Z,97454.59
2023-05-05T18:47:58.099Z,97456.06
2023-05-05T18:52:59.397Z,97450.34
2023-05-05T18:58:00.721Z,97464.69
2023-05-05T19:03:01.971Z,97491.53
2023-05-05T19:08:03.493Z,97511.47
2023-05-05T19:13:04.891Z,97512.00
2023-05-05T19:18:06.445Z,97518.03
2023-05-05T19:23:07.852Z,97523.34
2023-05-05T19:28:09.095Z,97519.06
2023-05-05T19:33:10.383Z,97513.16
2023-05-05T19:38:12.027Z,97519.28
2023-05-05T19:43:13.291Z,97518.03
2023-05-05T19:48:14.563Z,97533.66
2023-05-05T19:53:15.800Z,97527.72
2023-05-05T19:58:17.028Z,97537.00
2023-05-05T20:03:18.337Z,97536.09
2023-05-05T20:08:19.620Z,97536.69
2023-05-05T20:13:20.902Z,97545.97
2023-05-05T20:18:22.181Z,97562.84
2023-05-05T20:23:23.408Z,97568.75
2023-05-05T20:28:24.719Z,97593.72
2023-05-05T20:33:26.003Z,97627.66
2023-05-05T20:38:27.313Z,97658.03
2023-05-05T20:43:28.611Z,97677.47
2023-05-05T20:48:29.860Z,97754.84
2023-05-05T20:53:31.325Z,97782.91
2023-05-05T20:58:32.565Z,97789.47
2023-05-05T21:03:33.827Z,97783.13
2023-05-05T21:08:35.073Z,97787.25
2023-05-05T21:13:36.346Z,97785.44
2023-05-05T21:18:37.664Z,97787.19
2023-05-05T21:23:38.947Z,97774.16
2023-05-05T21:28:40.369Z,97761.03
2023-05-05T21:33:41.588Z,97760.34
2023-05-05T21:38:42.794Z,97765.34
2023-05-05T21:43:44.076Z,97764.53
2023-05-05T21:48:45.486Z,97754.13
2023-05-05T21:53:46.804Z,97742.97
2023-05-05T21:58:48.120Z,97748.41
2023-05-05T22:03:49.432Z,97747.25
2023-05-05T22:08:50.798Z,97737.44
2023-05-05T22:13:52.050Z,97748.88
2023-05-05T22:18:53.408Z,97743.09
2023-05-05T22:23:54.633Z,97740.25
2023-05-05T22:28:56.279Z,97764.53
2023-05-05T22:33:57.696Z,97763.56
2023-05-05T22:38:59.214Z,97754.91
2023-05-05T22:44:00.671Z,97754.31
2023-05-05T22:49:01.972Z,97757.25
2023-05-05T22:54:03.483Z,97761.88
2023-05-05T22:59:05.624Z,97752.47
2023-05-05T23:04:07.314Z,97754.22
2023-05-05T23:09:09.291Z,97761.91
2023-05-05T23:14:10.559Z,97762.59
2023-05-05T23:19:11.806Z,97761.44
2023-05-05T23:24:13.057Z,97784.19
2023-05-05T23:29:14.297Z,97769.78
2023-05-05T23:34:15.559Z,97773.47
2023-05-05T23:39:16.857Z,97769.13
2023-05-05T23:44:18.102Z,97779.59
2023-05-05T23:49:19.379Z,97780.38
2023-05-05T23:54:20.686Z,97791.97
2023-05-05T23:59:21.902Z,97779.91
